createdAt,value
2017-11-25T00:00:15.216Z,998.92
2017-11-25T00:01:25.003Z,998.95
2017-11-25T00:02:35.093Z,998.95
2017-11-25T00:03:44.945Z,999.01
2017-11-25T00:04:54.752Z,998.98
2017-11-25T00:06:04.829Z,998.99
2017-11-25T00:07:14.911Z,999.02
2017-11-25T00:08:24.981Z,998.99
2017-11-25T00:09:35.046Z,998.96
2017-11-25T00:10:45.119Z,998.93
2017-11-25T00:11:54.662Z,998.87
2017-11-25T00:13:04.769Z,998.82
2017-11-25T00:14:14.575Z,998.8
2017-11-25T00:15:24.702Z,998.78
2017-11-25T00:16:34.783Z,998.75
2017-11-25T00:17:44.876Z,998.75
2017-11-25T00:18:55.713Z,998.82
2017-11-25T00:20:05.816Z,998.84
2017-11-25T00:21:15.358Z,998.83
2017-11-25T00:22:25.173Z,998.84
2017-11-25T00:23:34.709Z,998.84
2017-11-25T00:24:44.773Z,998.78
2017-11-25T00:25:54.894Z,998.81
2017-11-25T00:27:04.984Z,998.75
2017-11-25T00:28:15.055Z,998.72
2017-11-25T00:29:25.122Z,998.76
2017-11-25T00:30:35.202Z,998.73
2017-11-25T00:31:45.000Z,998.75
2017-11-25T00:32:54.819Z,998.76
2017-11-25T00:34:04.901Z,998.79
2017-11-25T00:35:14.700Z,998.8
2017-11-25T00:36:24.785Z,998.84
2017-11-25T00:37:34.337Z,998.82
2017-11-25T00:38:44.159Z,998.78
2017-11-25T00:39:54.271Z,998.77
2017-11-25T00:41:04.359Z,998.74
2017-11-25T00:42:14.720Z,998.73
2017-11-25T00:49:37.549Z,998.8
2017-11-25T00:50:48.146Z,998.82
2017-11-25T00:51:59.530Z,998.81
2017-11-25T00:53:09.370Z,998.82
2017-11-25T00:54:19.447Z,998.83
2017-11-25T00:55:29.533Z,998.85
2017-11-25T00:56:39.623Z,998.81
2017-11-25T00:57:48.898Z,998.78
2017-11-25T00:58:58.727Z,998.73
2017-11-25T01:00:08.872Z,998.76
2017-11-25T01:01:18.963Z,998.72
2017-11-25T01:02:28.757Z,998.71
2017-11-25T01:03:38.556Z,998.65
2017-11-25T01:04:48.633Z,998.59
2017-11-25T01:05:58.502Z,998.62
2017-11-25T01:07:08.582Z,998.64
2017-11-25T01:08:18.662Z,998.66
2017-11-25T01:09:28.735Z,998.73
2017-11-25T01:10:38.547Z,998.74
2017-11-25T01:11:48.629Z,998.78
2017-11-25T01:12:58.687Z,998.8
2017-11-25T01:14:09.871Z,998.79
2017-11-25T01:15:19.685Z,998.73
2017-11-25T01:16:29.947Z,998.75
2017-11-25T01:17:40.006Z,998.66
2017-11-25T01:18:50.098Z,998.67
2017-11-25T01:19:59.929Z,998.63
2017-11-25T01:21:09.743Z,998.7
2017-11-25T01:22:19.009Z,998.73
2017-11-25T01:23:29.098Z,998.67
2017-11-25T01:24:39.166Z,998.68
2017-11-25T01:25:49.246Z,998.72
2017-11-25T01:26:59.055Z,998.7
2017-11-25T01:28:08.593Z,998.65
2017-11-25T01:29:18.682Z,998.68
2017-11-25T01:30:28.765Z,998.68
2017-11-25T01:31:38.312Z,998.65
2017-11-25T01:32:48.119Z,998.57
2017-11-25T01:33:57.946Z,998.56
2017-11-25T01:35:07.494Z,998.59
2017-11-25T01:36:17.327Z,998.59
2017-11-25T01:37:28.732Z,998.49
2017-11-25T01:38:38.812Z,998.45
2017-11-25T01:39:48.891Z,998.41
2017-11-25T01:40:58.728Z,998.38
2017-11-25T01:42:08.859Z,998.32
2017-11-25T01:43:18.671Z,998.22
2017-11-25T01:44:28.757Z,998.16
2017-11-25T01:45:38.568Z,998.16
2017-11-25T01:46:48.420Z,998.14
2017-11-25T01:47:58.545Z,998.06
2017-11-25T01:49:08.350Z,998.08
2017-11-25T01:50:18.182Z,998.06
2017-11-25T01:51:28.277Z,998.01
2017-11-25T01:52:38.371Z,998.04
2017-11-25T01:53:48.437Z,998.01
2017-11-25T01:54:58.520Z,997.99
2017-11-25T01:56:08.625Z,997.94
2017-11-25T01:57:18.696Z,997.9
2017-11-25T01:58:28.797Z,997.87
2017-11-25T01:59:38.615Z,997.84
2017-11-25T02:00:48.419Z,997.84
2017-11-25T02:01:58.219Z,997.84
2017-11-25T02:03:07.777Z,997.88
2017-11-25T02:04:17.901Z,997.9
2017-11-25T02:05:27.749Z,997.88
2017-11-25T02:06:37.551Z,997.86
2017-11-25T02:07:47.630Z,997.84
2017-11-25T02:08:57.704Z,997.81
2017-11-25T02:10:07.500Z,997.75
2017-11-25T02:11:17.587Z,997.75
2017-11-25T02:12:26.875Z,997.78
2017-11-25T02:13:36.941Z,997.73
2017-11-25T02:14:46.750Z,997.69
2017-11-25T02:15:56.815Z,997.62
2017-11-25T02:17:06.889Z,997.56
2017-11-25T02:18:16.689Z,997.59
2017-11-25T02:19:26.496Z,997.6
2017-11-25T02:20:36.588Z,997.6
2017-11-25T02:21:45.866Z,997.66
2017-11-25T02:22:55.671Z,997.69
2017-11-25T02:24:05.483Z,997.67
2017-11-25T02:25:15.584Z,997.7
2017-11-25T02:26:25.650Z,997.68
2017-11-25T02:27:35.192Z,997.7
2017-11-25T02:28:45.068Z,997.62
2017-11-25T02:29:54.884Z,997.66
2017-11-25T02:31:04.972Z,997.62
2017-11-25T02:32:14.789Z,997.65
2017-11-25T02:33:24.091Z,997.57
2017-11-25T02:34:34.195Z,997.58
2017-11-25T02:35:44.295Z,997.6
2017-11-25T02:36:53.840Z,997.61
2017-11-25T02:38:03.924Z,997.61
2017-11-25T02:39:13.737Z,997.58
2017-11-25T02:40:23.559Z,997.66
2017-11-25T02:41:33.640Z,997.62
2017-11-25T02:42:43.749Z,997.59
2017-11-25T02:43:53.855Z,997.57
2017-11-25T02:45:03.410Z,997.56
2017-11-25T02:46:13.240Z,997.6
2017-11-25T02:47:23.375Z,997.58
2017-11-25T02:48:33.203Z,997.52
2017-11-25T02:49:43.302Z,997.43
2017-11-25T02:50:53.398Z,997.49
2017-11-25T02:52:02.944Z,997.47
2017-11-25T02:53:13.044Z,997.44
2017-11-25T02:54:22.884Z,997.42
2017-11-25T02:55:32.983Z,997.42
2017-11-25T02:56:42.809Z,997.46
2017-11-25T02:57:52.929Z,997.51
2017-11-25T02:59:03.022Z,997.48
2017-11-25T03:00:13.095Z,997.45
2017-11-25T03:01:22.914Z,997.5
2017-11-25T03:02:32.977Z,997.45
2017-11-25T03:34:11.925Z,996.82
2017-11-25T03:35:21.787Z,996.8
2017-11-25T03:36:31.864Z,996.8
2017-11-25T03:37:41.929Z,996.79
2017-11-25T03:38:51.745Z,996.78
2017-11-25T03:40:01.870Z,996.83
2017-11-25T03:41:11.422Z,996.82
2017-11-25T03:42:21.498Z,996.8
2017-11-25T03:43:31.298Z,996.84
2017-11-25T03:44:41.109Z,996.91
2017-11-25T03:45:50.920Z,996.98
2017-11-25T03:47:00.996Z,996.96
2017-11-25T03:48:11.093Z,997.02
2017-11-25T03:49:20.899Z,996.95
2017-11-25T03:50:30.707Z,996.94
2017-11-25T03:51:40.523Z,996.87
2017-11-25T03:52:50.612Z,996.82
2017-11-25T03:54:00.699Z,996.76
2017-11-25T03:55:10.793Z,996.65
2017-11-25T03:56:20.604Z,996.62
2017-11-25T03:57:30.733Z,996.57
2017-11-25T03:58:40.800Z,996.51
2017-11-25T03:59:50.094Z,996.56
2017-11-25T04:01:00.607Z,996.46
2017-11-25T04:02:10.151Z,996.48
2017-11-25T04:03:20.221Z,996.46
2017-11-25T04:04:30.049Z,996.43
2017-11-25T04:05:40.132Z,996.41
2017-11-25T04:06:49.677Z,996.35
2017-11-25T04:07:59.523Z,996.39
2017-11-25T04:09:09.596Z,996.34
2017-11-25T04:10:19.678Z,996.3
2017-11-25T04:11:29.219Z,996.31
2017-11-25T04:12:38.750Z,996.28
2017-11-25T04:13:48.807Z,996.22
2017-11-25T04:14:58.395Z,996.23
2017-11-25T04:16:09.084Z,996.24
2017-11-25T04:17:18.636Z,996.29
2017-11-25T04:18:28.702Z,996.28
2017-11-25T04:19:38.774Z,996.29
2017-11-25T04:20:48.584Z,996.27
2017-11-25T04:21:58.659Z,996.31
2017-11-25T04:23:08.726Z,996.28
2017-11-25T04:24:18.801Z,996.25
2017-11-25T04:25:28.874Z,996.28
2017-11-25T04:26:39.025Z,996.32
2017-11-25T04:27:49.101Z,996.36
2017-11-25T04:28:59.191Z,996.35
2017-11-25T04:30:09.025Z,996.36
2017-11-25T04:31:19.107Z,996.32
2017-11-25T04:32:28.637Z,996.25
2017-11-25T04:33:38.172Z,996.23
2017-11-25T04:34:48.249Z,996.27
2017-11-25T04:35:58.065Z,996.27
2017-11-25T04:37:07.604Z,996.27
2017-11-25T04:38:17.753Z,996.22
2017-11-25T04:39:27.831Z,996.21
2017-11-25T04:40:37.421Z,996.21
2017-11-25T04:41:47.527Z,996.11
2017-11-25T04:42:57.336Z,996.08
2017-11-25T04:44:07.404Z,996.07
2017-11-25T04:45:17.207Z,995.96
2017-11-25T04:46:27.284Z,995.95
2017-11-25T04:47:37.106Z,995.92
2017-11-25T04:48:46.115Z,995.9
2017-11-25T04:49:55.927Z,995.88
2017-11-25T04:51:06.101Z,995.91
2017-11-25T04:52:16.175Z,995.89
2017-11-25T04:53:26.256Z,995.89
2017-11-25T04:54:36.085Z,995.88
2017-11-25T04:55:45.954Z,995.89
2017-11-25T04:56:55.658Z,995.88
2017-11-25T04:58:05.477Z,995.84
2017-11-25T04:59:15.550Z,995.83
2017-11-25T05:00:25.367Z,995.85
2017-11-25T05:01:34.923Z,995.83
2017-11-25T05:02:44.995Z,995.81
2017-11-25T05:03:55.083Z,995.78
2017-11-25T05:05:04.889Z,995.72
2017-11-25T05:06:14.689Z,995.64
2017-11-25T05:07:24.748Z,995.59
2017-11-25T05:08:34.820Z,995.52
2017-11-25T05:09:44.903Z,995.57
2017-11-25T05:10:54.719Z,995.56
2017-11-25T05:12:04.261Z,995.54
2017-11-25T05:13:14.086Z,995.53
2017-11-25T05:14:24.153Z,995.54
2017-11-25T05:15:33.961Z,995.5
2017-11-25T05:16:44.035Z,995.49
2017-11-25T05:17:54.126Z,995.45
2017-11-25T05:19:04.259Z,995.37
2017-11-25T05:20:14.331Z,995.33
2017-11-25T05:21:24.153Z,995.27
2017-11-25T05:22:33.940Z,995.17
2017-11-25T05:23:44.029Z,995.2
2017-11-25T05:24:54.102Z,995.15
2017-11-25T05:26:04.183Z,995.13
2017-11-25T05:27:14.268Z,995.14
2017-11-25T05:28:24.358Z,995.2
2017-11-25T05:29:34.158Z,995.17
2017-11-25T05:30:43.961Z,995.12
2017-11-25T05:31:54.031Z,995.1
2017-11-25T05:33:03.859Z,995.12
2017-11-25T05:34:13.673Z,995.11
2017-11-25T05:35:23.470Z,995.1
2017-11-25T05:36:33.346Z,995.04
2017-11-25T05:37:43.437Z,995.05
2017-11-25T05:38:53.524Z,995.04
2017-11-25T05:40:03.597Z,995.03
2017-11-25T05:41:13.666Z,994.97
2017-11-25T05:42:23.791Z,994.99
2017-11-25T05:43:33.596Z,994.96
2017-11-25T05:44:43.409Z,994.97
2017-11-25T05:45:53.500Z,994.99
2017-11-25T05:47:03.049Z,994.93
2017-11-25T05:48:12.868Z,994.98
2017-11-25T05:49:22.952Z,995
2017-11-25T05:50:32.227Z,994.95
2017-11-25T05:51:42.034Z,994.89
2017-11-25T05:52:51.870Z,994.93
2017-11-25T05:54:01.457Z,994.85
2017-11-25T05:55:11.267Z,994.9
2017-11-25T05:56:21.080Z,994.92
2017-11-25T05:57:31.149Z,994.88
2017-11-25T05:58:40.994Z,994.88
2017-11-25T05:59:50.836Z,994.88
2017-11-25T06:01:00.643Z,994.87
2017-11-25T06:02:10.732Z,994.79
2017-11-25T06:03:20.532Z,994.84
2017-11-25T06:04:30.598Z,994.82
2017-11-25T06:05:40.413Z,994.79
2017-11-25T06:06:50.551Z,994.87
2017-11-25T06:08:00.640Z,994.81
2017-11-25T06:09:10.180Z,994.81
2017-11-25T06:10:20.273Z,994.8
2017-11-25T06:11:30.099Z,994.86
2017-11-25T06:12:40.182Z,994.88
2017-11-25T06:13:50.001Z,994.91
2017-11-25T06:15:00.071Z,994.89
2017-11-25T06:16:09.889Z,994.85
2017-11-25T06:17:19.986Z,994.81
2017-11-25T06:18:30.073Z,994.8
2017-11-25T06:19:40.137Z,994.77
2017-11-25T06:20:50.219Z,994.72
2017-11-25T06:22:00.290Z,994.7
2017-11-25T06:23:10.117Z,994.71
2017-11-25T06:24:19.932Z,994.61
2017-11-25T06:25:30.030Z,994.57
2017-11-25T06:26:39.833Z,994.49
2017-11-25T06:27:49.654Z,994.43
2017-11-25T06:28:59.734Z,994.4
2017-11-25T06:30:09.371Z,994.41
2017-11-25T06:31:19.454Z,994.47
2017-11-25T06:32:29.270Z,994.5
2017-11-25T06:33:39.087Z,994.53
2017-11-25T06:34:49.217Z,994.54
2017-11-25T06:35:59.305Z,994.62
2017-11-25T06:37:09.382Z,994.61
2017-11-25T06:38:19.484Z,994.66
2017-11-25T06:39:29.309Z,994.65
2017-11-25T06:40:39.128Z,994.59
2017-11-25T06:41:48.943Z,994.66
2017-11-25T06:42:59.046Z,994.67
2017-11-25T06:44:09.118Z,994.69
2017-11-25T06:45:19.218Z,994.7
2017-11-25T06:46:29.037Z,994.62
2017-11-25T06:47:39.118Z,994.56
2017-11-25T06:48:49.224Z,994.47
2017-11-25T06:49:59.057Z,994.43
2017-11-25T06:51:09.132Z,994.33
2017-11-25T06:52:19.209Z,994.33
2017-11-25T06:53:29.311Z,994.32
2017-11-25T06:54:38.580Z,994.29
2017-11-25T06:55:48.395Z,994.35
2017-11-25T06:56:58.464Z,994.42
2017-11-25T06:58:08.017Z,994.57
2017-11-25T06:59:17.363Z,994.58
2017-11-25T07:00:27.157Z,994.57
2017-11-25T07:01:36.979Z,994.55
2017-11-25T07:02:47.063Z,994.54
2017-11-25T07:03:56.862Z,994.6
2017-11-25T07:05:06.944Z,994.62
2017-11-25T07:06:17.041Z,994.64
2017-11-25T07:07:26.587Z,994.62
2017-11-25T07:08:36.669Z,994.62
2017-11-25T07:09:46.478Z,994.55
2017-11-25T07:10:56.287Z,994.54
2017-11-25T07:12:06.117Z,994.47
2017-11-25T07:13:15.942Z,994.43
2017-11-25T07:14:25.531Z,994.45
2017-11-25T07:15:35.619Z,994.45
2017-11-25T07:16:45.736Z,994.45
2017-11-25T07:17:55.847Z,994.43
2017-11-25T07:19:05.391Z,994.43
2017-11-25T07:20:15.478Z,994.33
2017-11-25T07:21:25.294Z,994.39
2017-11-25T07:22:35.378Z,994.33
2017-11-25T07:23:45.213Z,994.31
2017-11-25T07:24:55.017Z,994.25
2017-11-25T07:26:04.858Z,994.26
2017-11-25T07:27:14.924Z,994.22
2017-11-25T07:28:25.080Z,994.19
2017-11-25T07:29:34.370Z,994.09
2017-11-25T07:30:44.452Z,994.05
2017-11-25T07:31:54.539Z,994
2017-11-25T07:33:04.666Z,993.99
2017-11-25T07:34:14.728Z,993.97
2017-11-25T07:35:24.540Z,993.93
2017-11-25T07:36:34.076Z,993.9
2017-11-25T07:37:44.153Z,993.89
2017-11-25T07:38:53.981Z,993.89
2017-11-25T07:40:04.142Z,993.88
2017-11-25T07:41:13.964Z,993.82
2017-11-25T07:42:23.789Z,993.78
2017-11-25T07:43:33.341Z,993.73
2017-11-25T07:44:43.439Z,993.71
2017-11-25T07:45:53.566Z,993.64
2017-11-25T07:47:03.382Z,993.55
2017-11-25T07:48:13.197Z,993.54
2017-11-25T07:49:23.038Z,993.51
2017-11-25T07:50:32.847Z,993.45
2017-11-25T07:51:42.969Z,993.4
2017-11-25T07:52:53.049Z,993.35
2017-11-25T07:54:03.233Z,993.29
2017-11-25T07:55:13.031Z,993.29
2017-11-25T07:56:23.108Z,993.23
2017-11-25T07:57:32.932Z,993.24
2017-11-25T07:58:42.746Z,993.21
2017-11-25T07:59:53.505Z,993.2
2017-11-25T08:01:03.325Z,993.24
2017-11-25T08:02:13.139Z,993.26
2017-11-25T08:03:23.212Z,993.19
2017-11-25T08:04:33.033Z,993.22
2017-11-25T08:05:42.854Z,993.22
2017-11-25T08:06:52.967Z,993.14
2017-11-25T08:08:02.775Z,993.09
2017-11-25T08:09:13.872Z,993.1
2017-11-25T08:10:23.939Z,993.11
2017-11-25T08:11:33.751Z,993.06
2017-11-25T08:12:43.286Z,993.03
2017-11-25T08:13:53.381Z,993.01
2017-11-25T08:15:03.458Z,993
2017-11-25T08:16:13.276Z,993.08
2017-11-25T08:17:23.335Z,993.03
2017-11-25T08:18:32.874Z,993.04
2017-11-25T08:19:42.950Z,992.98
2017-11-25T08:20:53.065Z,992.94
2017-11-25T08:22:02.367Z,992.91
2017-11-25T08:23:12.196Z,992.87
2017-11-25T08:24:22.023Z,992.82
2017-11-25T08:25:31.861Z,992.8
2017-11-25T08:26:41.665Z,992.77
2017-11-25T08:27:51.733Z,992.76
2017-11-25T08:29:01.547Z,992.7
2017-11-25T08:30:11.403Z,992.75
2017-11-25T08:31:21.483Z,992.74
2017-11-25T08:32:31.339Z,992.68
2017-11-25T08:33:41.188Z,992.72
2017-11-25T08:34:51.289Z,992.69
2017-11-25T08:36:00.866Z,992.69
2017-11-25T08:37:10.672Z,992.71
2017-11-25T08:38:20.807Z,992.7
2017-11-25T08:39:30.641Z,992.69
2017-11-25T08:40:40.453Z,992.68
2017-11-25T08:41:50.528Z,992.69
2017-11-25T08:43:00.071Z,992.64
2017-11-25T08:44:10.199Z,992.61
2017-11-25T08:45:20.027Z,992.58
2017-11-25T08:46:29.842Z,992.6
2017-11-25T08:47:39.914Z,992.55
2017-11-25T08:48:49.732Z,992.51
2017-11-25T08:49:59.327Z,992.4
2017-11-25T08:51:09.149Z,992.37
2017-11-25T08:52:18.967Z,992.36
2017-11-25T08:53:28.779Z,992.29
2017-11-25T08:54:38.868Z,992.28
2017-11-25T08:55:48.980Z,992.29
2017-11-25T08:56:59.066Z,992.2
2017-11-25T08:58:09.148Z,992.19
2017-11-25T08:59:19.261Z,992.21
2017-11-25T09:00:28.808Z,992.21
2017-11-25T09:01:38.724Z,992.13
2017-11-25T09:02:48.812Z,992.11
2017-11-25T09:03:58.947Z,992.12
2017-11-25T09:05:08.752Z,992.11
2017-11-25T09:06:18.559Z,992.09
2017-11-25T09:07:28.434Z,992.02
2017-11-25T09:08:38.269Z,991.99
2017-11-25T09:09:48.319Z,991.93
2017-11-25T09:10:58.158Z,991.85
2017-11-25T09:12:08.247Z,991.79
2017-11-25T09:13:18.317Z,991.73
2017-11-25T09:14:28.412Z,991.68
2017-11-25T09:15:38.506Z,991.64
2017-11-25T09:16:48.622Z,991.58
2017-11-25T09:17:58.746Z,991.57
2017-11-25T09:19:08.909Z,991.54
2017-11-25T09:20:18.726Z,991.43
2017-11-25T09:21:28.572Z,991.39
2017-11-25T09:22:38.450Z,991.34
2017-11-25T09:23:47.988Z,991.34
2017-11-25T09:24:57.863Z,991.37
2017-11-25T09:26:07.687Z,991.34
2017-11-25T09:27:17.507Z,991.33
2017-11-25T09:28:27.336Z,991.32
2017-11-25T09:29:37.436Z,991.28
2017-11-25T09:30:46.996Z,991.22
2017-11-25T09:31:57.077Z,991.24
2017-11-25T09:33:07.217Z,991.24
2017-11-25T09:34:17.300Z,991.26
2017-11-25T09:35:27.392Z,991.18
2017-11-25T09:36:37.266Z,991.14
2017-11-25T09:37:46.826Z,991.11
2017-11-25T09:38:56.925Z,991.07
2017-11-25T09:40:06.731Z,991.05
2017-11-25T09:41:16.802Z,991.06
2017-11-25T09:42:26.657Z,991.01
2017-11-25T09:43:36.464Z,990.95
2017-11-25T09:44:46.016Z,990.93
2017-11-25T09:45:56.090Z,990.96
2017-11-25T09:47:05.628Z,990.89
2017-11-25T09:48:15.446Z,990.92
2017-11-25T09:49:25.013Z,990.82
2017-11-25T09:50:35.088Z,990.73
2017-11-25T09:51:44.909Z,990.63
2017-11-25T09:52:54.994Z,990.59
2017-11-25T09:54:05.138Z,990.54
2017-11-25T09:55:15.241Z,990.44
2017-11-25T09:56:25.051Z,990.39
2017-11-25T09:57:35.124Z,990.33
2017-11-25T09:58:45.221Z,990.24
2017-11-25T09:59:55.303Z,990.2
2017-11-25T10:01:04.874Z,990.22
2017-11-25T10:02:14.689Z,990.19
2017-11-25T10:03:24.522Z,990.18
2017-11-25T10:04:34.583Z,990.12
2017-11-25T10:05:44.415Z,990.05
2017-11-25T10:06:54.513Z,990.06
2017-11-25T10:08:04.332Z,990.06
2017-11-25T10:09:14.423Z,990
2017-11-25T10:10:24.245Z,990.04
2017-11-25T10:11:33.784Z,990.02
2017-11-25T10:12:43.067Z,990.11
2017-11-25T10:13:53.180Z,990.06
2017-11-25T10:15:03.006Z,990.04
2017-11-25T10:16:12.838Z,990
2017-11-25T10:17:22.932Z,989.95
2017-11-25T10:18:32.763Z,989.9
2017-11-25T10:19:42.862Z,989.95
2017-11-25T10:20:52.938Z,989.93
2017-11-25T10:22:02.746Z,989.91
2017-11-25T10:23:12.617Z,989.88
2017-11-25T10:24:22.418Z,989.9
2017-11-25T10:25:32.223Z,989.9
2017-11-25T10:26:42.303Z,989.87
2017-11-25T10:27:51.868Z,989.93
2017-11-25T10:29:01.957Z,989.91
2017-11-25T10:30:11.780Z,989.8
2017-11-25T10:31:21.863Z,989.73
2017-11-25T10:32:31.937Z,989.67
2017-11-25T10:33:42.038Z,989.62
2017-11-25T10:34:51.905Z,989.58
2017-11-25T10:36:02.004Z,989.54
2017-11-25T10:37:11.808Z,989.53
2017-11-25T10:38:21.900Z,989.53
2017-11-25T10:39:31.745Z,989.52
2017-11-25T10:40:41.606Z,989.52
2017-11-25T10:41:51.145Z,989.46
2017-11-25T10:43:01.005Z,989.41
2017-11-25T10:44:11.079Z,989.4
2017-11-25T10:45:21.167Z,989.37
2017-11-25T10:46:31.025Z,989.32
2017-11-25T10:47:40.834Z,989.35
2017-11-25T10:48:50.384Z,989.32
2017-11-25T10:50:00.212Z,989.31
2017-11-25T10:51:10.030Z,989.27
2017-11-25T10:52:19.852Z,989.19
2017-11-25T10:53:29.947Z,989.14
2017-11-25T10:54:40.042Z,989.09
2017-11-25T10:55:49.321Z,989.07
2017-11-25T10:56:59.397Z,988.97
2017-11-25T10:58:10.739Z,988.94
2017-11-25T10:59:20.835Z,988.89
2017-11-25T11:00:30.948Z,988.92
2017-11-25T11:01:40.763Z,988.9
2017-11-25T11:02:50.566Z,988.85
2017-11-25T11:04:00.729Z,988.74
2017-11-25T11:05:10.308Z,988.66
2017-11-25T11:06:20.148Z,988.56
2017-11-25T11:07:29.668Z,988.52
2017-11-25T11:08:39.491Z,988.55
2017-11-25T11:09:49.577Z,988.54
2017-11-25T11:10:59.663Z,988.46
2017-11-25T11:12:09.741Z,988.45
2017-11-25T11:13:19.554Z,988.41
2017-11-25T11:14:29.390Z,988.39
2017-11-25T11:15:39.482Z,988.36
2017-11-25T11:16:49.576Z,988.36
2017-11-25T11:17:59.116Z,988.34
2017-11-25T11:19:08.917Z,988.37
2017-11-25T11:20:18.837Z,988.34
2017-11-25T11:21:28.958Z,988.37
2017-11-25T11:22:38.787Z,988.35
2017-11-25T11:23:48.342Z,988.29
2017-11-25T11:24:58.414Z,988.27
2017-11-25T11:26:08.222Z,988.26
2017-11-25T11:27:18.304Z,988.22
2017-11-25T11:28:28.421Z,988.23
2017-11-25T11:29:38.497Z,988.27
2017-11-25T11:30:48.324Z,988.21
2017-11-25T11:31:58.421Z,988.23
2017-11-25T11:33:08.525Z,988.27
2017-11-25T11:34:18.670Z,988.32
2017-11-25T11:35:28.731Z,988.31
2017-11-25T11:36:38.814Z,988.29
2017-11-25T11:37:48.908Z,988.34
2017-11-25T11:38:58.468Z,988.31
2017-11-25T11:40:08.555Z,988.34
2017-11-25T11:41:18.376Z,988.31
2017-11-25T11:42:28.200Z,988.29
2017-11-25T11:43:38.034Z,988.27
2017-11-25T11:44:48.184Z,988.22
2017-11-25T11:45:58.021Z,988.18
2017-11-25T11:47:07.835Z,988.19
2017-11-25T11:48:17.634Z,988.2
2017-11-25T11:49:27.459Z,988.18
2017-11-25T11:50:37.624Z,988.17
2017-11-25T11:51:47.740Z,988.11
2017-11-25T11:52:57.560Z,988.06
2017-11-25T11:54:07.645Z,988.03
2017-11-25T11:55:17.736Z,987.98
2017-11-25T11:56:27.351Z,988.02
2017-11-25T11:57:37.456Z,988.04
2017-11-25T11:58:47.267Z,988.03
2017-11-25T11:59:57.102Z,988
2017-11-25T12:01:06.969Z,987.96
2017-11-25T12:02:17.121Z,987.97
2017-11-25T12:03:26.940Z,987.91
2017-11-25T12:04:37.008Z,987.91
2017-11-25T12:05:47.098Z,987.92
2017-11-25T12:06:57.181Z,987.91
2017-11-25T12:08:07.283Z,987.94
2017-11-25T12:09:17.111Z,987.94
2017-11-25T12:10:26.677Z,987.89
2017-11-25T12:11:36.761Z,987.91
2017-11-25T12:12:46.836Z,987.95
2017-11-25T12:13:56.917Z,987.95
2017-11-25T12:15:07.075Z,987.97
2017-11-25T12:16:17.214Z,987.93
2017-11-25T12:17:27.302Z,987.95
2017-11-25T12:18:37.370Z,987.97
2017-11-25T12:19:46.943Z,987.97
2017-11-25T12:20:57.084Z,987.93
2017-11-25T12:22:07.199Z,987.9
2017-11-25T12:23:17.018Z,987.94
2017-11-25T12:24:27.129Z,987.92
2017-11-25T12:25:36.945Z,987.88
2017-11-25T12:26:47.040Z,987.89
2017-11-25T12:27:56.599Z,987.88
2017-11-25T12:29:06.686Z,987.83
2017-11-25T12:30:16.572Z,987.85
2017-11-25T12:31:26.917Z,987.77
2017-11-25T12:32:36.731Z,987.77
2017-11-25T12:33:46.564Z,987.77
2017-11-25T12:34:56.386Z,987.8
2017-11-25T12:36:06.004Z,987.8
2017-11-25T12:37:15.827Z,987.86
2017-11-25T12:38:25.641Z,987.89
2017-11-25T12:39:35.737Z,987.87
2017-11-25T12:40:45.818Z,987.85
2017-11-25T12:41:55.971Z,987.85
2017-11-25T12:43:06.045Z,987.83
2017-11-25T12:44:16.133Z,987.82
2017-11-25T12:45:25.945Z,987.82
2017-11-25T12:46:36.034Z,987.8
2017-11-25T12:47:46.125Z,987.79
2017-11-25T12:48:55.934Z,987.78
2017-11-25T12:50:05.774Z,987.75
2017-11-25T12:51:15.909Z,987.71
2017-11-25T12:52:25.730Z,987.7
2017-11-25T12:53:35.816Z,987.74
2017-11-25T12:54:45.391Z,987.8
2017-11-25T12:55:55.513Z,987.82
2017-11-25T12:57:05.325Z,987.81
2017-11-25T12:58:15.424Z,987.81
2017-11-25T12:59:25.510Z,987.8
2017-11-25T13:00:35.607Z,987.78
2017-11-25T13:01:45.703Z,987.85
2017-11-25T13:02:55.252Z,987.83
2017-11-25T13:04:05.801Z,987.87
2017-11-25T13:05:15.618Z,987.86
2017-11-25T13:06:25.726Z,987.91
2017-11-25T13:07:35.554Z,987.94
2017-11-25T13:08:45.664Z,987.9
2017-11-25T13:09:55.217Z,987.88
2017-11-25T13:11:04.820Z,987.82
2017-11-25T13:12:14.941Z,987.83
2017-11-25T13:13:24.783Z,987.86
2017-11-25T13:14:34.322Z,987.85
2017-11-25T13:15:43.866Z,987.87
2017-11-25T13:16:53.970Z,987.94
2017-11-25T13:18:03.807Z,987.95
2017-11-25T13:19:13.872Z,987.95
2017-11-25T13:20:23.682Z,988.03
2017-11-25T13:21:33.777Z,988.05
2017-11-25T13:22:43.597Z,988.09
2017-11-25T13:23:53.440Z,988.16
2017-11-25T13:25:03.537Z,988.2
2017-11-25T13:26:13.354Z,988.19
2017-11-25T13:27:23.421Z,988.16
2017-11-25T13:28:33.029Z,988.17
2017-11-25T13:29:42.847Z,988.21
2017-11-25T13:30:52.939Z,988.24
2017-11-25T13:32:03.039Z,988.22
2017-11-25T13:33:12.861Z,988.23
2017-11-25T13:34:22.413Z,988.23
2017-11-25T13:35:32.246Z,988.26
2017-11-25T13:36:41.797Z,988.3
2017-11-25T13:37:51.905Z,988.29
2017-11-25T13:39:02.004Z,988.3
2017-11-25T13:40:11.817Z,988.31
2017-11-25T13:41:21.953Z,988.37
2017-11-25T13:42:32.063Z,988.38
2017-11-25T13:43:42.148Z,988.38
2017-11-25T13:44:52.270Z,988.41
2017-11-25T13:46:02.074Z,988.39
2017-11-25T13:47:11.649Z,988.42
2017-11-25T13:48:21.482Z,988.46
2017-11-25T13:49:31.297Z,988.48
2017-11-25T13:50:40.829Z,988.46
2017-11-25T13:51:50.976Z,988.5
2017-11-25T13:53:00.805Z,988.5
2017-11-25T13:54:10.929Z,988.44
2017-11-25T13:55:21.021Z,988.45
2017-11-25T13:56:30.577Z,988.48
2017-11-25T13:57:40.469Z,988.58
2017-11-25T13:58:50.594Z,988.52
2017-11-25T14:00:00.688Z,988.6
2017-11-25T14:01:10.774Z,988.62
2017-11-25T14:02:20.850Z,988.63
2017-11-25T14:03:30.658Z,988.66
2017-11-25T14:04:41.174Z,988.8
2017-11-25T14:05:51.266Z,988.71
2017-11-25T14:07:01.380Z,988.78
2017-11-25T14:08:11.446Z,988.82
2017-11-25T14:09:21.338Z,988.86
2017-11-25T14:10:31.150Z,988.9
2017-11-25T14:11:40.474Z,988.93
2017-11-25T14:12:50.561Z,988.91
2017-11-25T14:14:00.902Z,989.02
2017-11-25T14:15:10.737Z,989.03
2017-11-25T14:16:20.323Z,989.09
2017-11-25T14:17:30.418Z,989.15
2017-11-25T14:18:39.966Z,989.18
2017-11-25T14:19:49.810Z,989.2
2017-11-25T14:20:59.902Z,989.25
2017-11-25T14:22:09.737Z,989.37
2017-11-25T14:23:19.550Z,989.49
2017-11-25T14:24:29.618Z,989.62
2017-11-25T14:25:39.698Z,989.77
2017-11-25T14:26:49.788Z,989.8
2017-11-25T14:27:59.929Z,989.81
2017-11-25T14:29:09.523Z,989.82
2017-11-25T14:30:19.612Z,989.81
2017-11-25T14:31:29.722Z,989.88
2017-11-25T14:32:39.856Z,989.99
2017-11-25T14:33:49.985Z,990.08
2017-11-25T14:34:59.801Z,990.16
2017-11-25T14:36:09.877Z,990.22
2017-11-25T14:37:19.696Z,990.24
2017-11-25T14:38:29.620Z,990.15
2017-11-25T14:39:39.720Z,990.16
2017-11-25T14:40:49.528Z,990.16
2017-11-25T14:41:59.652Z,990.22
2017-11-25T14:43:09.733Z,990.23
2017-11-25T14:44:19.828Z,990.27
2017-11-25T14:45:29.902Z,990.31
2017-11-25T14:46:40.020Z,990.32
2017-11-25T14:47:49.843Z,990.37
2017-11-25T14:48:59.672Z,990.36
2017-11-25T14:50:09.823Z,990.45
2017-11-25T14:51:19.627Z,990.52
2017-11-25T14:52:29.447Z,990.6
2017-11-25T14:53:39.310Z,990.59
2017-11-25T14:54:49.441Z,990.61
2017-11-25T14:55:59.334Z,990.68
2017-11-25T14:57:09.156Z,990.71
2017-11-25T14:58:18.697Z,990.73
2017-11-25T14:59:28.787Z,990.74
2017-11-25T15:00:38.902Z,990.81
2017-11-25T15:01:48.982Z,990.75
2017-11-25T15:02:59.069Z,990.85
2017-11-25T15:04:08.878Z,990.81
2017-11-25T15:05:18.972Z,990.87
2017-11-25T15:06:29.068Z,990.86
2017-11-25T15:07:38.894Z,990.93
2017-11-25T15:08:48.979Z,991
2017-11-25T15:09:59.054Z,991.04
2017-11-25T15:11:09.796Z,991.03
2017-11-25T15:12:19.077Z,991.04